createdAt,value
2018-02-22T00:00:32.743Z,32.90
2018-02-22T00:03:01.124Z,32.60
2018-02-22T00:05:30.490Z,27.73
2018-02-22T00:07:59.812Z,31.35
2018-02-22T00:10:28.266Z,35.50
2018-02-22T00:12:57.385Z,33.22
2018-02-22T00:15:25.718Z,29.10
2018-02-22T00:17:54.043Z,27.30
2018-02-22T00:20:22.503Z,32.80
2018-02-22T00:22:50.856Z,32.08
2018-02-22T00:25:19.174Z,27.35
2018-02-22T00:27:47.541Z,34.72
2018-02-22T00:30:15.831Z,32.33
2018-02-22T00:32:44.944Z,30.85
2018-02-22T00:35:14.077Z,29.55
2018-02-22T00:37:42.440Z,29.45
2018-02-22T00:40:10.744Z,28.12
2018-02-22T00:42:39.110Z,29.63
2018-02-22T00:45:07.485Z,25.12
2018-02-22T00:47:35.838Z,30.60
2018-02-22T00:50:04.166Z,31.77
2018-02-22T00:52:32.633Z,28.60
2018-02-22T00:55:01.106Z,28.45
2018-02-22T00:57:29.458Z,29.02
2018-02-22T00:59:57.828Z,26.75
2018-02-22T01:02:26.160Z,31.62
2018-02-22T01:04:54.496Z,29.73
2018-02-22T01:07:22.848Z,32.20
2018-02-22T01:09:51.207Z,29.30
2018-02-22T01:12:20.475Z,31.23
2018-02-22T01:14:48.804Z,26.52
2018-02-22T01:17:17.171Z,29.55
2018-02-22T01:19:46.536Z,28.42
2018-02-22T01:22:14.879Z,28.58
2018-02-22T01:24:43.209Z,26.10
2018-02-22T01:27:12.301Z,26.55
2018-02-22T01:29:40.750Z,28.55
2018-02-22T01:32:09.354Z,26.52
2018-02-22T01:34:38.614Z,30.00
2018-02-22T01:37:06.938Z,24.27
2018-02-22T01:39:36.881Z,27.20
2018-02-22T01:42:05.192Z,28.80
2018-02-22T01:44:33.604Z,29.00
2018-02-22T01:47:01.947Z,32.08
2018-02-22T01:49:30.457Z,25.30
2018-02-22T01:52:00.277Z,27.70
2018-02-22T01:54:29.387Z,27.70
2018-02-22T01:56:57.740Z,31.08
2018-02-22T01:59:26.108Z,29.02
2018-02-22T02:01:54.452Z,29.48
2018-02-22T02:04:22.845Z,32.72
2018-02-22T02:06:51.187Z,29.80
2018-02-22T02:09:19.514Z,30.30
2018-02-22T02:11:47.939Z,27.05
2018-02-22T02:14:17.056Z,26.85
2018-02-22T02:16:45.355Z,24.77
2018-02-22T02:19:13.692Z,35.10
2018-02-22T02:21:42.119Z,36.53
2018-02-22T02:24:10.448Z,27.45
2018-02-22T02:26:38.913Z,29.60
2018-02-22T02:29:07.241Z,29.85
2018-02-22T02:31:36.044Z,25.10
2018-02-22T02:34:04.359Z,24.40
2018-02-22T02:36:32.736Z,31.95
2018-02-22T02:39:01.175Z,22.77
2018-02-22T02:41:29.508Z,22.23
2018-02-22T02:43:57.852Z,27.70
2018-02-22T02:46:26.973Z,21.00
2018-02-22T02:48:55.319Z,23.58
2018-02-22T02:51:24.382Z,26.17
2018-02-22T02:53:52.758Z,26.75
2018-02-22T02:56:21.073Z,20.23
2018-02-22T02:58:50.232Z,21.77
2018-02-22T03:01:18.590Z,31.70
2018-02-22T03:03:46.905Z,25.35
2018-02-22T03:06:16.104Z,22.90
2018-02-22T03:08:45.352Z,22.15
2018-02-22T03:11:13.684Z,27.25
2018-02-22T03:13:42.766Z,20.25
2018-02-22T03:16:11.879Z,21.75
2018-02-22T03:18:40.950Z,20.20
2018-02-22T03:21:09.288Z,23.48
2018-02-22T03:23:37.626Z,22.67
2018-02-22T03:26:06.931Z,21.25
2018-02-22T03:28:35.991Z,16.33
2018-02-22T03:31:04.296Z,21.30
2018-02-22T03:33:32.749Z,24.50
2018-02-22T03:36:01.096Z,19.70
2018-02-22T03:38:29.527Z,25.48
2018-02-22T03:40:58.586Z,22.10
2018-02-22T03:43:26.908Z,21.27
2018-02-22T03:45:55.272Z,23.42
2018-02-22T03:48:24.378Z,22.48
2018-02-22T03:50:53.460Z,22.27
2018-02-22T03:53:22.557Z,20.90
2018-02-22T03:55:51.686Z,24.23
2018-02-22T03:58:20.046Z,22.27
2018-02-22T04:00:49.192Z,23.83
2018-02-22T04:03:17.510Z,21.75
2018-02-22T04:05:45.925Z,22.62
2018-02-22T04:08:14.243Z,20.08
2018-02-22T04:10:43.385Z,21.67
2018-02-22T04:13:11.695Z,22.35
2018-02-22T04:15:40.142Z,20.95
2018-02-22T04:18:08.493Z,22.42
2018-02-22T04:20:36.798Z,18.80
2018-02-22T04:23:05.124Z,21.40
2018-02-22T04:25:33.463Z,20.65
2018-02-22T04:28:02.849Z,21.90
2018-02-22T04:30:31.140Z,24.23
2018-02-22T04:32:59.506Z,21.73
2018-02-22T04:35:28.539Z,22.65
2018-02-22T04:37:56.889Z,18.95
2018-02-22T04:40:25.361Z,18.12
2018-02-22T04:42:53.772Z,23.45
2018-02-22T04:45:23.174Z,20.02
2018-02-22T04:47:52.275Z,25.73
2018-02-22T04:50:20.612Z,18.73
2018-02-22T04:52:48.915Z,23.20
2018-02-22T04:55:18.786Z,21.60
2018-02-22T04:57:47.896Z,22.58
2018-02-22T05:00:17.959Z,21.77
2018-02-22T05:02:47.039Z,18.00
2018-02-22T05:05:15.343Z,23.45
2018-02-22T05:07:43.676Z,18.40
2018-02-22T05:10:12.086Z,19.60
2018-02-22T05:12:41.927Z,31.17
2018-02-22T05:15:10.270Z,23.80
2018-02-22T05:17:40.324Z,23.40
2018-02-22T05:20:08.676Z,25.12
2018-02-22T05:22:37.195Z,17.85
2018-02-22T05:25:06.867Z,19.65
2018-02-22T05:27:35.183Z,23.67
2018-02-22T05:30:03.522Z,21.48
2018-02-22T05:32:32.913Z,20.05
2018-02-22T05:35:02.106Z,17.25
2018-02-22T05:37:31.218Z,21.83
2018-02-22T05:39:59.755Z,24.30
2018-02-22T05:42:28.076Z,22.45
2018-02-22T05:44:56.447Z,22.85
2018-02-22T05:47:24.984Z,23.10
2018-02-22T05:49:53.299Z,17.52
2018-02-22T05:52:21.714Z,23.10
2018-02-22T05:54:50.049Z,22.35
2018-02-22T05:57:18.564Z,22.05
2018-02-22T05:59:46.955Z,21.05
2018-02-22T06:02:15.319Z,20.70
2018-02-22T06:04:43.757Z,21.62
2018-02-22T06:07:12.855Z,23.87
2018-02-22T06:09:42.172Z,29.15
2018-02-22T06:12:10.487Z,26.08
2018-02-22T06:14:39.037Z,28.08
2018-02-22T06:17:07.381Z,25.50
2018-02-22T06:19:36.645Z,27.77
2018-02-22T06:22:05.305Z,28.23
2018-02-22T06:24:33.644Z,27.40
2018-02-22T06:27:02.720Z,29.52
2018-02-22T06:29:31.039Z,26.15
2018-02-22T06:31:59.399Z,29.73
2018-02-22T06:34:28.677Z,22.33
2018-02-22T06:36:57.775Z,25.95
2018-02-22T06:39:27.946Z,26.25
2018-02-22T06:41:56.322Z,27.95
2018-02-22T06:44:25.492Z,34.20
2018-02-22T06:46:54.041Z,22.33
2018-02-22T06:49:22.616Z,25.80
2018-02-22T06:51:51.161Z,22.75
2018-02-22T06:54:20.704Z,23.08
2018-02-22T06:56:49.856Z,24.73
2018-02-22T06:59:18.641Z,24.48
2018-02-22T07:01:47.418Z,26.27
2018-02-22T07:04:15.833Z,20.42
2018-02-22T07:06:44.184Z,27.92
2018-02-22T07:09:12.543Z,21.92
2018-02-22T07:11:41.136Z,22.35
2018-02-22T07:14:09.476Z,25.23
2018-02-22T07:16:38.581Z,21.25
2018-02-22T07:19:07.423Z,21.70
2018-02-22T07:21:35.778Z,21.48
2018-02-22T07:24:04.198Z,16.25
2018-02-22T07:26:32.542Z,22.98
2018-02-22T07:29:00.924Z,18.30
2018-02-22T07:31:29.338Z,21.52
2018-02-22T07:33:58.490Z,24.83
2018-02-22T07:36:26.985Z,24.52
2018-02-22T07:38:55.401Z,25.05
2018-02-22T07:41:24.660Z,22.83
2018-02-22T07:43:53.284Z,16.90
2018-02-22T07:46:27.620Z,21.73
2018-02-22T07:48:55.991Z,21.02
2018-02-22T07:51:25.114Z,21.35
2018-02-22T07:53:53.485Z,19.37
2018-02-22T07:56:21.801Z,17.85
2018-02-22T07:58:50.192Z,22.58
2018-02-22T08:01:19.519Z,22.00
2018-02-22T08:03:47.959Z,23.27
2018-02-22T08:06:17.456Z,22.37
2018-02-22T08:08:45.789Z,24.70
2018-02-22T08:11:14.145Z,16.52
2018-02-22T08:13:43.216Z,22.52
2018-02-22T08:16:11.620Z,19.25
2018-02-22T08:18:40.861Z,17.52
2018-02-22T08:21:09.208Z,14.32
2018-02-22T08:23:37.687Z,14.85
2018-02-22T08:26:06.046Z,15.45
2018-02-22T08:28:35.996Z,18.77
2018-02-22T08:31:04.323Z,13.77
2018-02-22T08:33:34.261Z,16.75
2018-02-22T08:36:02.577Z,15.77
2018-02-22T08:38:30.920Z,13.02
2018-02-22T08:40:59.238Z,12.35
2018-02-22T08:43:27.770Z,14.02
2018-02-22T08:45:56.112Z,14.18
2018-02-22T08:48:24.524Z,19.95
2018-02-22T08:50:52.872Z,17.52
2018-02-22T08:53:21.291Z,11.73
2018-02-22T08:55:49.650Z,11.68
2018-02-22T08:58:19.589Z,11.68
2018-02-22T09:00:49.144Z,12.55
2018-02-22T09:03:17.855Z,10.05
2018-02-22T09:05:46.587Z,11.02
2018-02-22T09:08:15.259Z,11.55
2018-02-22T09:10:43.810Z,10.07
2018-02-22T09:13:12.906Z,9.60
2018-02-22T09:15:41.508Z,8.85
2018-02-22T09:18:10.104Z,10.88
2018-02-22T09:20:38.413Z,10.20
2018-02-22T09:23:07.048Z,9.02
2018-02-22T09:25:35.563Z,9.02
2018-02-22T09:28:04.164Z,13.80
2018-02-22T09:30:32.672Z,11.18
2018-02-22T09:33:01.567Z,8.73
2018-02-22T09:35:30.296Z,10.88
2018-02-22T09:37:59.703Z,8.20
2018-02-22T09:40:28.554Z,10.98
2018-02-22T09:42:57.255Z,9.32
2018-02-22T09:45:25.749Z,6.97
2018-02-22T09:47:54.729Z,7.15
2018-02-22T09:50:23.433Z,7.93
2018-02-22T09:52:52.298Z,7.50
2018-02-22T09:55:21.399Z,8.05
2018-02-22T09:57:49.797Z,7.80
2018-02-22T10:00:19.126Z,9.38
2018-02-22T10:02:48.515Z,7.82
2018-02-22T10:05:17.207Z,10.18
2018-02-22T10:07:45.768Z,9.95
2018-02-22T10:10:14.413Z,6.72
2018-02-22T10:12:42.973Z,8.52
2018-02-22T10:15:11.373Z,6.12
2018-02-22T10:17:39.992Z,5.90
2018-02-22T10:20:08.952Z,7.32
2018-02-22T10:22:40.351Z,4.68
2018-02-22T10:25:08.918Z,4.28
2018-02-22T10:27:37.486Z,7.10
2018-02-22T10:30:06.071Z,4.43
2018-02-22T10:32:34.651Z,5.05
2018-02-22T10:35:03.491Z,8.57
2018-02-22T10:37:32.748Z,5.15
2018-02-22T10:40:01.359Z,7.93
2018-02-22T10:42:30.818Z,4.80
2018-02-22T10:44:59.188Z,5.40
2018-02-22T10:47:29.050Z,6.50
2018-02-22T10:49:57.919Z,5.20
2018-02-22T10:52:27.672Z,6.15
2018-02-22T10:54:56.273Z,6.43
2018-02-22T10:57:24.726Z,4.50
2018-02-22T10:59:53.433Z,5.65
2018-02-22T11:02:27.708Z,5.37
2018-02-22T11:04:56.364Z,4.55
2018-02-22T11:07:24.848Z,4.80
2018-02-22T11:09:53.363Z,4.80
2018-02-22T11:12:22.739Z,3.87
2018-02-22T11:14:52.340Z,3.83
2018-02-22T11:17:24.418Z,4.85
2018-02-22T11:19:53.698Z,3.97
2018-02-22T11:22:22.197Z,6.87
2018-02-22T11:24:51.960Z,6.07
2018-02-22T11:27:20.550Z,5.18
2018-02-22T11:29:49.496Z,3.97
2018-02-22T11:32:18.770Z,5.15
2018-02-22T11:34:47.320Z,6.87
2018-02-22T11:37:15.910Z,4.07
2018-02-22T11:39:44.841Z,6.00
2018-02-22T11:42:14.195Z,5.90
2018-02-22T11:44:42.841Z,4.32
2018-02-22T11:47:11.504Z,4.05
2018-02-22T11:49:40.275Z,3.95
2018-02-22T11:52:09.124Z,4.62
2018-02-22T11:54:37.652Z,4.50
2018-02-22T11:57:07.015Z,6.70
2018-02-22T11:59:36.010Z,3.58
2018-02-22T12:02:04.890Z,4.30
2018-02-22T12:04:33.544Z,4.62
2018-02-22T12:07:02.455Z,3.80
2018-02-22T12:09:31.180Z,7.70
2018-02-22T12:11:59.737Z,3.45
2018-02-22T12:14:28.330Z,2.92
2018-02-22T12:16:57.273Z,4.22
2018-02-22T12:19:25.994Z,3.97
2018-02-22T12:21:54.587Z,4.45
2018-02-22T12:24:23.060Z,4.00
2018-02-22T12:26:52.068Z,3.28
2018-02-22T12:29:20.740Z,3.37
2018-02-22T12:31:50.004Z,3.53
2018-02-22T12:34:18.488Z,4.87
2018-02-22T12:36:47.161Z,4.75
2018-02-22T12:39:15.658Z,4.45
2018-02-22T12:41:44.416Z,4.32
2018-02-22T12:44:13.742Z,4.90
2018-02-22T12:46:42.213Z,5.85
2018-02-22T12:49:12.029Z,4.72
2018-02-22T12:51:40.717Z,6.07
2018-02-22T12:54:10.489Z,5.15
2018-02-22T12:56:38.810Z,6.03
2018-02-22T12:59:07.541Z,8.55
2018-02-22T13:01:36.640Z,6.15
2018-02-22T13:04:05.357Z,4.40
2018-02-22T13:06:34.886Z,3.70
2018-02-22T13:09:03.473Z,4.35
2018-02-22T13:11:31.953Z,7.25
2018-02-22T13:14:00.912Z,5.00
2018-02-22T13:16:29.780Z,5.95
2018-02-22T13:18:59.073Z,6.10
2018-02-22T13:21:28.169Z,4.18
2018-02-22T13:23:57.312Z,6.85
2018-02-22T13:26:26.170Z,7.35
2018-02-22T13:28:54.682Z,4.62
2018-02-22T13:31:23.521Z,5.72
2018-02-22T13:34:10.406Z,5.37
2018-02-22T13:36:39.780Z,5.32
2018-02-22T13:39:10.002Z,5.10
2018-02-22T13:41:38.584Z,6.62
2018-02-22T13:44:24.873Z,4.78
2018-02-22T13:46:54.647Z,4.25
2018-02-22T13:49:42.381Z,4.25
2018-02-22T13:52:12.085Z,5.43
2018-02-22T13:54:41.542Z,5.03
2018-02-22T13:57:17.696Z,3.93
2018-02-22T13:59:46.028Z,5.90
2018-02-22T14:02:25.905Z,6.10
2018-02-22T14:04:54.276Z,4.45
2018-02-22T14:07:22.615Z,6.78
2018-02-22T14:09:52.224Z,4.68
2018-02-22T14:12:21.804Z,4.18
2018-02-22T14:14:50.545Z,9.10
2018-02-22T14:17:19.054Z,5.72
2018-02-22T14:19:48.430Z,6.10
2018-02-22T14:22:17.171Z,5.50
2018-02-22T14:24:46.447Z,8.55
2018-02-22T14:27:15.634Z,6.20
2018-02-22T14:29:44.099Z,5.72
2018-02-22T14:32:12.716Z,5.47
2018-02-22T14:34:41.390Z,8.02
2018-02-22T14:37:10.922Z,6.37
2018-02-22T14:39:40.475Z,5.60
2018-02-22T14:42:11.189Z,4.72
2018-02-22T14:44:43.188Z,7.93
2018-02-22T14:47:14.244Z,5.40
2018-02-22T14:49:43.111Z,5.35
2018-02-22T14:52:11.972Z,7.25
2018-02-22T14:54:40.884Z,8.98
2018-02-22T14:57:10.099Z,4.93
2018-02-22T14:59:39.347Z,5.65
2018-02-22T15:02:08.485Z,7.07
2018-02-22T15:04:37.114Z,5.37
2018-02-22T15:07:06.705Z,6.70
2018-02-22T15:09:35.319Z,6.12
2018-02-22T15:12:05.507Z,6.93
2018-02-22T15:14:34.631Z,8.02
2018-02-22T15:17:03.510Z,6.22
2018-02-22T15:19:32.387Z,5.80
2018-02-22T15:22:01.234Z,7.80
2018-02-22T15:24:31.456Z,5.07
2018-02-22T15:27:00.719Z,6.07
2018-02-22T15:29:29.860Z,6.85
2018-02-22T15:31:59.365Z,7.40
2018-02-22T15:34:28.105Z,6.32
2018-02-22T15:36:56.927Z,7.90
2018-02-22T15:39:25.900Z,8.63
2018-02-22T15:41:54.239Z,6.60
2018-02-22T15:44:22.578Z,7.47
2018-02-22T15:46:50.949Z,6.97
2018-02-22T15:49:19.676Z,7.75
2018-02-22T15:51:48.126Z,4.95
2018-02-22T15:54:17.041Z,4.55
2018-02-22T15:56:45.896Z,5.97
2018-02-22T15:59:14.617Z,5.85
2018-02-22T16:01:43.917Z,6.75
2018-02-22T16:04:13.679Z,9.50
2018-02-22T16:06:42.831Z,8.50
2018-02-22T16:09:12.537Z,8.35
2018-02-22T16:11:42.316Z,5.75
2018-02-22T16:14:12.408Z,6.55
2018-02-22T16:16:44.434Z,5.97
2018-02-22T16:19:13.549Z,11.52
2018-02-22T16:21:42.571Z,6.55
2018-02-22T16:24:11.806Z,5.40
2018-02-22T16:26:40.837Z,8.45
2018-02-22T16:29:09.865Z,8.00
2018-02-22T16:31:38.552Z,6.43
2018-02-22T16:34:07.571Z,7.47
2018-02-22T16:36:36.708Z,7.47
2018-02-22T16:39:05.300Z,6.07
2018-02-22T16:41:34.063Z,9.40
2018-02-22T16:44:02.563Z,8.85
2018-02-22T16:46:32.304Z,9.60
2018-02-22T16:49:01.620Z,10.98
2018-02-22T16:51:32.359Z,13.57
2018-02-22T16:54:01.735Z,11.57
2018-02-22T16:56:30.082Z,8.50
2018-02-22T16:58:58.540Z,12.77
2018-02-22T17:01:27.768Z,34.50
2018-02-22T17:03:56.658Z,21.85
2018-02-22T17:06:25.552Z,16.17
2018-02-22T17:08:55.186Z,10.38
2018-02-22T17:11:23.972Z,13.00
2018-02-22T17:13:52.314Z,9.38
2018-02-22T17:16:20.803Z,12.40
2018-02-22T17:18:49.213Z,11.20
2018-02-22T17:21:17.845Z,10.68
2018-02-22T17:23:46.407Z,10.50
2018-02-22T17:26:20.555Z,14.20
2018-02-22T17:28:54.721Z,11.43
2018-02-22T17:31:28.814Z,8.63
2018-02-22T17:33:57.355Z,9.95
2018-02-22T17:36:37.916Z,9.65
2018-02-22T17:42:17.175Z,13.50
2018-02-22T17:44:46.154Z,9.85
2018-02-22T17:47:15.150Z,9.57
2018-02-22T17:49:45.078Z,10.48
2018-02-22T17:52:13.778Z,10.95
2018-02-22T17:54:42.503Z,9.88
2018-02-22T17:57:11.371Z,13.27
2018-02-22T17:59:39.967Z,7.45
2018-02-22T18:02:08.598Z,11.98
2018-02-22T18:04:37.521Z,11.10
2018-02-22T18:07:06.145Z,10.02
2018-02-22T18:09:34.869Z,9.10
2018-02-22T18:12:04.909Z,10.18
2018-02-22T18:14:33.763Z,9.32
2018-02-22T18:17:02.097Z,13.32
2018-02-22T18:19:31.232Z,10.02
2018-02-22T18:21:59.700Z,16.02
2018-02-22T18:24:28.229Z,12.60
2018-02-22T18:26:56.983Z,11.27
2018-02-22T18:29:25.292Z,11.23
2018-02-22T18:31:53.909Z,11.90
2018-02-22T18:34:22.598Z,11.85
2018-02-22T18:36:51.021Z,10.63
2018-02-22T18:39:25.551Z,9.00
2018-02-22T18:41:54.165Z,12.27
2018-02-22T18:44:28.929Z,13.65
2018-02-22T18:46:57.280Z,8.02
2018-02-22T18:49:25.623Z,9.55
2018-02-22T18:51:54.057Z,9.68
2018-02-22T18:54:22.811Z,11.38
2018-02-22T18:56:53.103Z,13.30
2018-02-22T18:59:21.891Z,10.07
2018-02-22T19:01:50.735Z,10.05
2018-02-22T19:04:20.920Z,12.23
2018-02-22T19:06:49.713Z,12.35
2018-02-22T19:09:18.880Z,12.15
2018-02-22T19:11:48.114Z,9.57
2018-02-22T19:14:19.137Z,10.70
2018-02-22T19:16:48.051Z,12.68
2018-02-22T19:19:16.661Z,10.82
2018-02-22T19:21:46.491Z,10.75
2018-02-22T19:24:15.345Z,9.70
2018-02-22T19:26:44.126Z,9.25
2018-02-22T19:29:12.723Z,13.45
2018-02-22T19:31:41.827Z,16.23
2018-02-22T19:34:12.300Z,9.55
2018-02-22T19:36:41.280Z,10.57
2018-02-22T19:39:10.379Z,10.65
2018-02-22T19:41:40.196Z,9.25
2018-02-22T19:44:09.949Z,10.38
2018-02-22T19:46:38.637Z,12.25
2018-02-22T19:49:07.884Z,10.50
2018-02-22T19:51:38.075Z,14.40
2018-02-22T19:54:07.430Z,12.63
2018-02-22T19:56:36.536Z,12.10
2018-02-22T19:59:05.435Z,11.43
2018-02-22T20:01:34.038Z,13.50
2018-02-22T20:04:05.021Z,9.95
2018-02-22T20:06:35.329Z,12.90
2018-02-22T20:09:05.601Z,10.48
2018-02-22T20:11:34.946Z,12.35
2018-02-22T20:14:03.936Z,12.00
2018-02-22T20:16:34.148Z,11.27
2018-02-22T20:19:05.803Z,12.15
2018-02-22T20:21:35.210Z,13.32
2018-02-22T20:24:04.706Z,11.43
2018-02-22T20:26:34.585Z,10.70
2018-02-22T20:29:04.359Z,8.50
2018-02-22T20:31:34.199Z,9.85
2018-02-22T20:34:03.835Z,11.15
2018-02-22T20:36:33.346Z,12.50
2018-02-22T20:39:02.008Z,15.57
2018-02-22T20:41:30.620Z,11.02
2018-02-22T20:43:59.424Z,9.27
2018-02-22T20:46:27.948Z,11.90
2018-02-22T20:48:57.157Z,10.73
2018-02-22T20:51:25.801Z,9.38
2018-02-22T20:53:55.140Z,16.77
2018-02-22T20:56:23.818Z,16.05
2018-02-22T20:58:52.553Z,12.90
2018-02-22T21:01:21.859Z,9.23
2018-02-22T21:03:51.314Z,16.20
2018-02-22T21:06:20.300Z,11.40
2018-02-22T21:08:48.826Z,11.30
2018-02-22T21:11:17.938Z,10.38
2018-02-22T21:13:47.068Z,10.02
2018-02-22T21:16:15.413Z,10.93
2018-02-22T21:18:44.678Z,12.00
2018-02-22T21:21:13.020Z,13.02
2018-02-22T21:23:41.372Z,8.85
2018-02-22T21:26:10.822Z,12.93
2018-02-22T21:28:39.149Z,12.98
2018-02-22T21:31:08.524Z,9.93
2018-02-22T21:33:37.631Z,9.13
2018-02-22T21:36:06.741Z,9.80
2018-02-22T21:38:35.164Z,10.85
2018-02-22T21:41:03.529Z,11.23
2018-02-22T21:43:31.908Z,11.05
2018-02-22T21:46:00.297Z,14.82
2018-02-22T21:48:28.654Z,9.63
2018-02-22T21:50:56.996Z,7.22
2018-02-22T21:53:26.083Z,7.25
2018-02-22T21:55:55.251Z,9.18
2018-02-22T21:58:23.606Z,11.35
2018-02-22T22:00:52.333Z,10.20
2018-02-22T22:03:21.190Z,9.80
2018-02-22T22:05:49.547Z,10.77
2018-02-22T22:08:18.692Z,12.23
2018-02-22T22:10:47.035Z,12.85
2018-02-22T22:13:15.397Z,13.18
2018-02-22T22:15:43.713Z,8.23
2018-02-22T22:18:12.812Z,10.52
2018-02-22T22:20:41.891Z,11.48
2018-02-22T22:23:10.454Z,9.15
2018-02-22T22:25:39.746Z,9.85
2018-02-22T22:28:09.005Z,8.52
2018-02-22T22:30:39.354Z,11.95
2018-02-22T22:33:07.861Z,13.13
2018-02-22T22:35:36.275Z,13.07
2018-02-22T22:38:05.355Z,7.95
2018-02-22T22:40:33.715Z,9.90
2018-02-22T22:43:02.798Z,10.27
2018-02-22T22:45:31.235Z,12.70
2018-02-22T22:47:59.610Z,11.73
2018-02-22T22:50:29.356Z,11.25
2018-02-22T22:52:58.625Z,10.45
2018-02-22T22:55:27.013Z,12.55
2018-02-22T22:57:56.612Z,12.43
2018-02-22T23:00:25.106Z,10.57
2018-02-22T23:02:54.384Z,8.40
2018-02-22T23:05:22.824Z,10.13
2018-02-22T23:07:51.208Z,14.15
2018-02-22T23:10:21.237Z,11.70
2018-02-22T23:12:50.361Z,10.20
2018-02-22T23:15:19.829Z,11.73
2018-02-22T23:17:48.240Z,10.85
2018-02-22T23:20:16.672Z,8.95
2018-02-22T23:22:45.258Z,10.90
2018-02-22T23:25:14.486Z,12.60
2018-02-22T23:27:42.825Z,9.70
2018-02-22T23:30:11.246Z,10.75
2018-02-22T23:32:40.434Z,13.25
2018-02-22T23:35:09.524Z,11.82
2018-02-22T23:37:38.646Z,11.10
2018-02-22T23:40:07.460Z,11.75
2018-02-22T23:42:35.785Z,11.88
2018-02-22T23:45:04.899Z,11.48
2018-02-22T23:47:34.720Z,11.88
2018-02-22T23:50:03.177Z,10.77
2018-02-22T23:52:32.252Z,18.62
2018-02-22T23:55:01.464Z,11.82
2018-02-22T23:57:29.801Z,15.02
2018-02-22T23:59:58.197Z,10.38
